createdAt,value
2022-12-29T00:00:29.922Z,2.15
2022-12-29T00:03:19.458Z,3.08
2022-12-29T00:06:04.809Z,1.88
2022-12-29T00:08:50.509Z,3.78
2022-12-29T00:11:38.075Z,2.60
2022-12-29T00:14:41.718Z,5.15
2022-12-29T00:17:27.070Z,2.92
2022-12-29T00:20:31.027Z,1.83
2022-12-29T00:23:34.712Z,2.15
2022-12-29T00:26:38.732Z,2.88
2022-12-29T00:29:42.534Z,2.25
2022-12-29T00:32:46.377Z,3.85
2022-12-29T00:35:54.889Z,4.60
2022-12-29T00:39:02.833Z,11.45
2022-12-29T00:42:07.691Z,2.22
2022-12-29T00:44:56.227Z,5.15
2022-12-29T00:47:41.921Z,5.70
2022-12-29T00:50:31.727Z,4.93
2022-12-29T00:53:17.102Z,4.95
2022-12-29T00:56:03.085Z,3.00
2022-12-29T00:58:48.662Z,3.40
2022-12-29T01:01:34.267Z,5.05
2022-12-29T01:04:21.856Z,2.40
2022-12-29T01:07:08.055Z,5.47
2022-12-29T01:10:11.470Z,5.10
2022-12-29T01:12:56.769Z,2.72
2022-12-29T01:15:42.003Z,4.20
2022-12-29T01:18:31.636Z,3.47
2022-12-29T01:21:18.173Z,2.92
2022-12-29T01:24:07.065Z,2.30
2022-12-29T01:26:53.517Z,2.80
2022-12-29T01:29:38.728Z,3.50
2022-12-29T01:32:27.005Z,2.47
2022-12-29T01:35:15.634Z,3.90
2022-12-29T01:38:01.130Z,4.38
2022-12-29T01:40:47.933Z,2.33
2022-12-29T01:43:57.403Z,5.85
2022-12-29T01:46:45.852Z,6.03
2022-12-29T01:49:31.616Z,4.07
2022-12-29T01:52:19.587Z,8.40
2022-12-29T01:55:09.738Z,3.83
2022-12-29T01:58:01.068Z,5.20
2022-12-29T02:00:49.544Z,6.03
2022-12-29T02:03:39.384Z,7.07
2022-12-29T02:06:33.932Z,8.10
2022-12-29T02:09:20.357Z,6.03
2022-12-29T02:12:05.823Z,3.47
2022-12-29T02:14:56.485Z,5.88
2022-12-29T02:17:57.281Z,5.07
2022-12-29T02:21:11.255Z,7.70
2022-12-29T02:24:18.941Z,4.30
2022-12-29T02:27:42.397Z,5.38
2022-12-29T02:31:07.035Z,8.25
2022-12-29T02:34:06.448Z,4.20
2022-12-29T02:37:25.032Z,5.53
2022-12-29T02:40:42.821Z,5.63
2022-12-29T02:43:45.060Z,4.38
2022-12-29T02:46:42.632Z,5.93
2022-12-29T02:49:42.599Z,5.65
2022-12-29T02:52:43.576Z,5.70
2022-12-29T02:55:29.376Z,7.00
2022-12-29T02:58:21.197Z,13.93
2022-12-29T03:05:00.769Z,11.63
2022-12-29T03:08:05.817Z,12.07
2022-12-29T03:11:03.617Z,12.27
2022-12-29T03:14:13.853Z,9.98
2022-12-29T03:17:11.654Z,6.82
2022-12-29T03:20:10.025Z,6.90
2022-12-29T03:23:03.912Z,10.27
2022-12-29T03:25:55.765Z,7.93
2022-12-29T03:28:51.287Z,7.63
2022-12-29T03:31:40.923Z,6.55
2022-12-29T03:34:27.576Z,8.68
2022-12-29T03:37:18.911Z,8.52
2022-12-29T03:40:06.323Z,6.05
2022-12-29T03:42:53.250Z,8.05
2022-12-29T03:45:39.805Z,11.35
2022-12-29T03:48:25.235Z,14.27
2022-12-29T03:51:13.284Z,7.53
2022-12-29T03:54:02.290Z,7.63
2022-12-29T03:56:48.130Z,7.40
2022-12-29T03:59:40.330Z,10.35
2022-12-29T04:02:28.670Z,8.65
2022-12-29T04:05:15.214Z,8.65
2022-12-29T04:08:01.279Z,13.93
2022-12-29T04:10:47.041Z,12.45
2022-12-29T04:13:41.930Z,6.20
2022-12-29T04:16:29.420Z,14.55
2022-12-29T04:19:16.638Z,12.02
2022-12-29T04:22:08.198Z,15.20
2022-12-29T04:24:57.332Z,11.90
2022-12-29T04:27:43.598Z,11.35
2022-12-29T04:30:48.689Z,10.60
2022-12-29T04:33:46.424Z,10.55
2022-12-29T04:36:32.665Z,12.10
2022-12-29T04:39:21.453Z,19.13
2022-12-29T04:42:07.385Z,10.07
2022-12-29T04:44:55.776Z,13.50
2022-12-29T04:47:54.480Z,11.10
2022-12-29T04:51:01.678Z,17.40
2022-12-29T04:53:56.340Z,10.73
2022-12-29T04:56:51.594Z,14.65
2022-12-29T04:59:37.650Z,16.02
2022-12-29T05:02:26.860Z,16.13
2022-12-29T05:05:13.747Z,21.27
2022-12-29T05:08:02.492Z,15.18
2022-12-29T05:10:48.339Z,17.45
2022-12-29T05:13:38.999Z,17.92
2022-12-29T05:16:24.372Z,24.40
2022-12-29T05:19:12.490Z,20.40
2022-12-29T05:21:57.893Z,26.88
2022-12-29T05:24:43.294Z,18.55
2022-12-29T05:27:30.183Z,22.55
2022-12-29T05:30:38.816Z,21.35
2022-12-29T05:33:24.165Z,24.88
2022-12-29T05:36:11.649Z,23.05
2022-12-29T05:39:01.211Z,18.40
2022-12-29T05:41:47.355Z,15.60
2022-12-29T05:45:02.021Z,30.00
2022-12-29T05:48:10.061Z,17.20
2022-12-29T05:51:17.291Z,25.67
2022-12-29T05:54:11.554Z,20.17
2022-12-29T05:56:59.438Z,23.85
2022-12-29T05:59:46.301Z,29.63
2022-12-29T06:02:31.941Z,27.52
2022-12-29T06:05:18.914Z,35.55
2022-12-29T06:08:04.784Z,28.08
2022-12-29T06:10:50.877Z,24.58
2022-12-29T06:13:36.527Z,25.88
2022-12-29T06:16:25.307Z,27.52
2022-12-29T06:19:14.181Z,24.40
2022-12-29T06:22:00.145Z,25.20
2022-12-29T06:24:49.873Z,17.60
2022-12-29T06:27:35.516Z,22.10
2022-12-29T06:30:20.956Z,24.83
2022-12-29T06:33:08.748Z,23.02
2022-12-29T06:35:55.045Z,19.02
2022-12-29T06:38:40.475Z,24.73
2022-12-29T06:41:31.946Z,23.80
2022-12-29T06:44:42.478Z,21.85
2022-12-29T06:47:31.627Z,17.88
2022-12-29T06:50:22.336Z,23.95
2022-12-29T06:53:08.470Z,18.38
2022-12-29T06:55:57.668Z,11.88
2022-12-29T06:58:47.530Z,10.43
2022-12-29T07:01:36.949Z,10.65
2022-12-29T07:04:26.056Z,18.73
2022-12-29T07:07:11.817Z,12.77
2022-12-29T07:09:59.904Z,18.02
2022-12-29T07:12:45.508Z,10.77
2022-12-29T07:15:40.107Z,11.85
2022-12-29T07:18:25.787Z,8.75
2022-12-29T07:21:11.385Z,15.55
2022-12-29T07:23:56.690Z,13.13
2022-12-29T07:26:42.740Z,17.38
2022-12-29T07:29:28.303Z,21.38
2022-12-29T07:32:13.852Z,23.20
2022-12-29T07:35:01.919Z,22.35
2022-12-29T07:37:47.074Z,14.93
2022-12-29T07:40:32.900Z,17.80
2022-12-29T07:43:23.947Z,17.63
2022-12-29T07:46:56.143Z,20.20
2022-12-29T07:52:25.057Z,12.73
2022-12-29T07:55:21.267Z,25.70
2022-12-29T07:58:12.743Z,20.23
2022-12-29T08:00:59.249Z,16.38
2022-12-29T08:03:51.337Z,22.63
2022-12-29T08:06:39.576Z,19.10
2022-12-29T08:09:31.193Z,21.13
2022-12-29T08:12:16.599Z,19.25
2022-12-29T08:15:02.083Z,12.13
2022-12-29T08:17:47.901Z,17.88
2022-12-29T08:20:38.642Z,16.60
2022-12-29T08:23:26.076Z,21.30
2022-12-29T08:26:12.056Z,18.73
2022-12-29T08:29:02.005Z,17.88
2022-12-29T08:31:51.983Z,24.33
2022-12-29T08:34:40.040Z,22.63
2022-12-29T08:37:30.881Z,19.65
2022-12-29T08:40:16.694Z,20.52
2022-12-29T08:43:07.425Z,16.83
2022-12-29T08:45:54.567Z,27.02
2022-12-29T08:48:43.019Z,25.60
2022-12-29T08:51:34.716Z,20.33
2022-12-29T08:54:21.274Z,33.80
2022-12-29T08:57:09.818Z,20.08
2022-12-29T09:00:01.332Z,14.30
2022-12-29T09:02:47.081Z,29.08
2022-12-29T09:05:32.764Z,20.33
2022-12-29T09:11:28.333Z,22.85
2022-12-29T09:14:16.610Z,27.45
2022-12-29T09:17:20.431Z,19.17
2022-12-29T09:20:08.071Z,24.13
2022-12-29T09:22:53.820Z,27.73
2022-12-29T09:25:39.323Z,24.63
2022-12-29T09:28:24.808Z,23.27
2022-12-29T09:31:10.532Z,25.42
2022-12-29T09:33:56.393Z,24.95
2022-12-29T09:36:41.843Z,37.90
2022-12-29T09:39:27.470Z,23.98
2022-12-29T09:42:25.249Z,19.17
2022-12-29T09:45:19.372Z,23.73
2022-12-29T09:48:10.751Z,17.85
2022-12-29T09:51:10.033Z,23.13
2022-12-29T09:54:04.152Z,20.33
2022-12-29T09:56:50.573Z,28.23
2022-12-29T09:59:47.441Z,26.10
2022-12-29T10:02:49.933Z,24.73
2022-12-29T10:05:51.250Z,22.85
2022-12-29T10:08:57.350Z,21.05
2022-12-29T10:12:00.441Z,28.58
2022-12-29T10:15:10.765Z,20.58
2022-12-29T10:18:23.076Z,28.38
2022-12-29T10:21:38.010Z,29.70
2022-12-29T10:24:24.148Z,29.30
2022-12-29T10:27:13.585Z,37.10
2022-12-29T10:30:00.377Z,35.75
2022-12-29T10:32:54.008Z,25.70
2022-12-29T10:35:44.193Z,35.97
2022-12-29T10:38:45.008Z,32.40
2022-12-29T10:41:40.187Z,30.80
2022-12-29T10:47:23.980Z,33.35
2022-12-29T10:50:13.596Z,47.67
2022-12-29T10:53:07.052Z,43.25
2022-12-29T10:55:56.313Z,55.22
2022-12-29T10:58:49.397Z,42.00
2022-12-29T11:01:45.708Z,34.75
2022-12-29T11:05:01.011Z,42.67
2022-12-29T11:07:50.622Z,32.75
2022-12-29T11:10:44.442Z,41.22
2022-12-29T11:13:38.913Z,40.83
2022-12-29T11:16:32.020Z,41.30
2022-12-29T11:19:25.793Z,41.05
2022-12-29T11:22:27.939Z,54.50
2022-12-29T11:25:14.120Z,40.47
2022-12-29T11:28:19.441Z,42.75
2022-12-29T11:31:06.188Z,46.38
2022-12-29T11:33:54.155Z,51.53
2022-12-29T11:36:39.961Z,46.25
2022-12-29T11:39:54.682Z,43.33
2022-12-29T11:42:48.734Z,34.30
2022-12-29T11:45:38.320Z,40.40
2022-12-29T11:48:26.796Z,47.50
2022-12-29T11:51:14.348Z,27.63
2022-12-29T11:54:03.763Z,29.83
2022-12-29T11:56:50.569Z,37.55
2022-12-29T11:59:42.502Z,35.33
2022-12-29T12:03:18.870Z,38.75
2022-12-29T12:06:04.760Z,32.25
2022-12-29T12:08:56.329Z,25.10
2022-12-29T12:11:48.656Z,26.70
2022-12-29T12:14:53.397Z,31.35
2022-12-29T12:18:03.032Z,22.98
2022-12-29T12:20:55.118Z,23.67
2022-12-29T12:24:16.406Z,16.63
2022-12-29T12:27:35.098Z,23.63
2022-12-29T12:30:25.948Z,21.95
2022-12-29T12:33:26.073Z,19.83
2022-12-29T12:36:48.983Z,13.75
2022-12-29T12:40:06.328Z,21.20
2022-12-29T12:43:22.836Z,23.00
2022-12-29T12:46:32.500Z,19.38
2022-12-29T12:49:48.331Z,21.52
2022-12-29T12:52:54.328Z,22.98
2022-12-29T12:56:02.062Z,22.52
2022-12-29T12:59:18.710Z,25.95
2022-12-29T13:02:29.848Z,29.45
2022-12-29T13:05:35.152Z,33.30
2022-12-29T13:08:57.085Z,25.42
2022-12-29T13:12:00.477Z,27.42
2022-12-29T13:15:10.173Z,26.92
2022-12-29T13:18:32.165Z,24.13
2022-12-29T13:21:34.624Z,23.48
2022-12-29T13:24:50.017Z,29.92
2022-12-29T13:28:01.802Z,31.92
2022-12-29T13:31:07.597Z,21.27
2022-12-29T13:34:26.308Z,19.65
2022-12-29T13:37:43.363Z,23.70
2022-12-29T13:40:29.480Z,36.80
2022-12-29T13:43:16.764Z,19.10
2022-12-29T13:46:21.169Z,14.88
2022-12-29T13:49:25.441Z,16.77
2022-12-29T13:52:21.061Z,16.80
2022-12-29T13:55:36.914Z,13.07
2022-12-29T13:58:40.828Z,14.32
2022-12-29T14:01:44.427Z,18.77
2022-12-29T14:04:34.052Z,21.58
2022-12-29T14:07:20.165Z,16.80
2022-12-29T14:10:06.407Z,17.42
2022-12-29T14:12:52.203Z,21.70
2022-12-29T14:15:44.153Z,28.38
2022-12-29T14:21:23.905Z,14.80
2022-12-29T14:24:44.414Z,15.70
2022-12-29T14:27:29.797Z,12.57
2022-12-29T14:30:52.791Z,21.55
2022-12-29T14:33:42.112Z,16.83
2022-12-29T14:36:35.834Z,16.95
2022-12-29T14:39:45.505Z,20.55
2022-12-29T14:42:33.053Z,24.08
2022-12-29T14:45:21.399Z,20.85
2022-12-29T14:48:30.898Z,21.80
2022-12-29T14:51:33.097Z,19.77
2022-12-29T14:54:37.410Z,22.38
2022-12-29T14:57:44.002Z,17.88
2022-12-29T15:00:33.970Z,16.08
2022-12-29T15:03:45.465Z,18.90
2022-12-29T15:06:31.742Z,18.45
2022-12-29T15:09:24.449Z,16.65
2022-12-29T15:12:20.545Z,20.42
2022-12-29T15:15:30.995Z,26.65
2022-12-29T15:18:25.147Z,22.52
2022-12-29T15:21:15.585Z,23.35
2022-12-29T15:24:01.753Z,22.00
2022-12-29T15:26:50.291Z,15.57
2022-12-29T15:29:42.339Z,25.88
2022-12-29T15:32:29.271Z,18.50
2022-12-29T15:35:32.812Z,19.85
2022-12-29T15:38:33.413Z,19.88
2022-12-29T15:42:00.599Z,20.10
2022-12-29T15:44:46.401Z,21.80
2022-12-29T15:47:33.191Z,16.38
2022-12-29T15:50:33.785Z,17.13
2022-12-29T15:53:29.459Z,11.82
2022-12-29T15:56:18.824Z,18.17
2022-12-29T15:59:05.231Z,16.42
2022-12-29T16:01:54.793Z,12.43
2022-12-29T16:05:01.687Z,17.55
2022-12-29T16:07:54.656Z,15.13
2022-12-29T16:10:43.623Z,19.90
2022-12-29T16:13:39.885Z,20.35
2022-12-29T16:16:37.919Z,18.95
2022-12-29T16:19:36.234Z,16.77
2022-12-29T16:22:35.221Z,14.25
2022-12-29T16:25:25.736Z,14.00
2022-12-29T16:28:22.380Z,11.07
2022-12-29T16:31:17.385Z,16.35
2022-12-29T16:34:24.429Z,13.02
2022-12-29T16:37:30.680Z,16.20
2022-12-29T16:40:19.343Z,11.48
2022-12-29T16:43:05.512Z,19.60
2022-12-29T16:45:54.411Z,19.38
2022-12-29T16:48:50.427Z,9.35
2022-12-29T16:51:38.039Z,9.90
2022-12-29T16:54:27.970Z,20.42
2022-12-29T16:57:13.333Z,14.27
2022-12-29T17:00:06.033Z,19.13
2022-12-29T17:02:55.399Z,19.40
2022-12-29T17:05:40.815Z,14.45
2022-12-29T17:08:29.725Z,20.65
2022-12-29T17:11:59.365Z,19.05
2022-12-29T17:14:56.299Z,20.63
2022-12-29T17:17:49.884Z,22.95
2022-12-29T17:20:35.611Z,13.40
2022-12-29T17:23:26.631Z,21.10
2022-12-29T17:26:15.870Z,18.50
2022-12-29T17:29:01.259Z,9.27
2022-12-29T17:31:46.961Z,22.15
2022-12-29T17:34:33.383Z,19.38
2022-12-29T17:37:24.787Z,16.02
2022-12-29T17:40:23.041Z,19.23
2022-12-29T17:43:16.811Z,19.20
2022-12-29T17:46:08.388Z,19.27
2022-12-29T17:48:54.186Z,21.13
2022-12-29T17:51:40.426Z,16.35
2022-12-29T17:54:26.571Z,19.20
2022-12-29T17:57:14.711Z,18.23
2022-12-29T18:00:03.480Z,22.45
2022-12-29T18:02:58.843Z,16.38
2022-12-29T18:05:45.222Z,23.80
2022-12-29T18:08:30.685Z,23.90
2022-12-29T18:11:26.872Z,22.27
2022-12-29T18:14:16.977Z,25.63
2022-12-29T18:17:02.318Z,22.20
2022-12-29T18:19:47.837Z,24.85
2022-12-29T18:22:33.439Z,23.05
2022-12-29T18:25:24.789Z,22.58
2022-12-29T18:28:10.424Z,21.55
2022-12-29T18:31:19.006Z,20.95
2022-12-29T18:34:13.635Z,27.15
2022-12-29T18:37:02.919Z,27.88
2022-12-29T18:39:48.534Z,19.80
2022-12-29T18:42:34.205Z,21.23
2022-12-29T18:45:22.293Z,28.90
2022-12-29T18:48:08.417Z,26.35
2022-12-29T18:50:53.774Z,30.10
2022-12-29T18:53:39.306Z,24.02
2022-12-29T18:56:24.947Z,25.75
2022-12-29T18:59:10.479Z,26.73
2022-12-29T19:01:55.907Z,25.38
2022-12-29T19:04:41.751Z,30.55
2022-12-29T19:07:27.141Z,70.80
2022-12-29T19:10:13.167Z,26.08
2022-12-29T19:12:59.133Z,29.88
2022-12-29T19:15:47.215Z,31.88
2022-12-29T19:18:45.333Z,26.35
2022-12-29T19:21:31.712Z,29.00
2022-12-29T19:24:17.151Z,26.10
2022-12-29T19:27:02.806Z,31.73
2022-12-29T19:29:48.230Z,25.25
2022-12-29T19:32:33.942Z,30.60
2022-12-29T19:35:20.952Z,33.38
2022-12-29T19:38:08.428Z,34.55
2022-12-29T19:40:59.669Z,32.47
2022-12-29T19:43:47.474Z,30.35
2022-12-29T19:46:32.892Z,40.20
2022-12-29T19:49:18.205Z,36.78
2022-12-29T19:52:03.843Z,26.08
2022-12-29T19:54:49.460Z,29.55
2022-12-29T19:57:34.889Z,24.70
2022-12-29T20:00:20.561Z,33.92
2022-12-29T20:03:06.068Z,41.63
2022-12-29T20:05:52.036Z,34.75
2022-12-29T20:08:38.841Z,27.50
2022-12-29T20:11:24.232Z,35.25
2022-12-29T20:14:16.703Z,26.33
2022-12-29T20:17:11.310Z,31.00
2022-12-29T20:19:57.186Z,28.70
2022-12-29T20:22:42.785Z,29.55
2022-12-29T20:25:50.619Z,35.10
2022-12-29T20:28:36.233Z,25.05
2022-12-29T20:31:30.949Z,27.83
2022-12-29T20:34:16.904Z,33.15
2022-12-29T20:37:02.676Z,30.38
2022-12-29T20:39:49.260Z,36.15
2022-12-29T20:42:34.883Z,29.45
2022-12-29T20:45:22.722Z,38.67
2022-12-29T20:48:08.232Z,27.73
2022-12-29T20:51:00.625Z,28.92
2022-12-29T20:53:46.444Z,28.83
2022-12-29T20:56:31.947Z,27.58
2022-12-29T20:59:27.413Z,21.50
2022-12-29T21:02:22.055Z,31.52
2022-12-29T21:05:23.765Z,28.70
2022-12-29T21:08:13.754Z,31.35
2022-12-29T21:10:59.933Z,27.50
2022-12-29T21:13:45.258Z,25.02
2022-12-29T21:16:31.048Z,34.65
2022-12-29T21:19:16.219Z,43.20
2022-12-29T21:22:07.394Z,23.80
2022-12-29T21:24:52.657Z,31.70
2022-12-29T21:27:38.173Z,34.15
2022-12-29T21:30:23.429Z,30.73
2022-12-29T21:33:08.924Z,30.38
2022-12-29T21:35:54.493Z,31.55
2022-12-29T21:38:41.847Z,34.20
2022-12-29T21:41:28.757Z,37.80
2022-12-29T21:44:32.618Z,29.60
2022-12-29T21:47:18.043Z,33.80
2022-12-29T21:50:04.215Z,20.95
2022-12-29T21:52:49.484Z,36.15
2022-12-29T21:55:34.860Z,24.00
2022-12-29T21:58:38.824Z,29.08
2022-12-29T22:01:43.952Z,31.77
2022-12-29T22:04:49.081Z,25.70
2022-12-29T22:07:53.481Z,31.70
2022-12-29T22:11:02.080Z,31.98
2022-12-29T22:13:47.562Z,25.25
2022-12-29T22:16:32.924Z,31.35
2022-12-29T22:19:23.385Z,22.52
2022-12-29T22:22:08.798Z,21.50
2022-12-29T22:24:54.401Z,29.20
2022-12-29T22:27:39.852Z,24.15
2022-12-29T22:30:26.553Z,37.13
2022-12-29T22:33:12.236Z,31.13
2022-12-29T22:35:59.730Z,26.65
2022-12-29T22:38:50.618Z,24.98
2022-12-29T22:41:36.248Z,31.15
2022-12-29T22:44:25.733Z,25.90
2022-12-29T22:47:13.631Z,22.08
2022-12-29T22:49:59.262Z,30.92
2022-12-29T22:52:44.805Z,25.73
2022-12-29T22:55:57.892Z,27.52
2022-12-29T22:58:45.165Z,35.33
2022-12-29T23:01:30.899Z,34.97
2022-12-29T23:07:25.238Z,20.98
2022-12-29T23:10:11.045Z,24.13
2022-12-29T23:12:56.356Z,23.80
2022-12-29T23:15:41.783Z,22.92
2022-12-29T23:18:27.533Z,32.80
2022-12-29T23:21:14.486Z,31.70
2022-12-29T23:24:05.735Z,25.73
2022-12-29T23:26:51.042Z,24.25
2022-12-29T23:29:36.661Z,24.73
2022-12-29T23:32:24.770Z,27.30
2022-12-29T23:35:10.502Z,27.35
2022-12-29T23:38:01.132Z,27.88
2022-12-29T23:40:46.478Z,41.42
2022-12-29T23:43:32.073Z,32.78
2022-12-29T23:46:23.728Z,28.63
2022-12-29T23:49:09.883Z,27.83
2022-12-29T23:51:55.265Z,26.02
2022-12-29T23:54:40.804Z,22.10
2022-12-29T23:57:26.444Z,22.42
